Time;durP1;ratioP1;P1;durP2;ratioP2;P2;SDS_P1;SDS_P2;PMS_P1;PMS_P2;Temp;Humidity;BMP_temperature;BMP_pressure;BME280_temperature;BME280_humidity;BME280_pressure;Samples;Min_cycle;Max_cycle;Signal;HPM_P1;HPM_P2
2023/10/03 00:01:10;;;;;;;2.15;1.33;;;21.20;99.90;;;;;;5009036;28;20021;-88
2023/10/03 00:03:36;;;;;;;7.28;2.30;;;21.30;99.90;;;;;;5014680;28;20026;-89
2023/10/03 00:06:01;;;;;;;2.40;1.77;;;21.30;99.90;;;;;;5014133;28;20622;-89
2023/10/03 00:21:24;;;;;;;5.13;1.40;;;21.40;99.90;;;;;;5179603;22;20056;-89
2023/10/03 00:23:49;;;;;;;0.80;0.80;;;21.40;99.90;;;;;;4997720;28;20046;-89
2023/10/03 00:36:36;;;;;;;7.70;2.70;;;21.40;99.90;;;;;;6008544;22;20016;-89
2023/10/03 00:39:06;;;;;;;7.57;2.47;;;21.50;99.90;;;;;;4998236;28;20018;-89
2023/10/03 00:57:08;;;;;;;1.10;1.02;;;21.60;99.90;;;;;;5282847;22;20408;-88
2023/10/03 00:59:36;;;;;;;2.67;1.23;;;21.50;99.90;;;;;;4981591;28;20022;-88
2023/10/03 01:02:06;;;;;;;0.60;0.60;;;21.50;99.90;;;;;;4993209;28;20627;-88
2023/10/03 01:04:34;;;;;;;1.85;0.90;;;21.50;99.90;;;;;;4991548;28;20040;-88
2023/10/03 01:09:35;;;;;;;1.27;1.13;;;21.50;99.90;;;;;;5101512;22;20073;-91
2023/10/03 01:12:01;;;;;;;1.05;1.05;;;21.50;99.90;;;;;;5008409;28;20055;-87
2023/10/03 02:39:55;;;;;;;0.60;0.60;;;21.30;99.90;;;;;;5199782;22;20119;-89
2023/10/03 02:42:21;;;;;;;1.50;1.40;;;21.20;99.90;;;;;;5011444;28;20483;-89
2023/10/03 02:44:46;;;;;;;1.60;1.38;;;21.10;99.90;;;;;;5013608;28;20044;-89
2023/10/03 02:47:12;;;;;;;0.45;0.45;;;21.10;99.90;;;;;;5012046;28;20115;-88
2023/10/03 02:49:38;;;;;;;1.35;0.98;;;21.10;99.90;;;;;;5009941;28;20168;-89
2023/10/03 02:52:05;;;;;;;0.90;0.88;;;21.10;99.90;;;;;;5010354;28;20059;-89
2023/10/03 02:54:33;;;;;;;1.00;1.00;;;21.00;99.90;;;;;;5009668;28;20512;-89
2023/10/03 02:56:59;;;;;;;12.55;1.60;;;21.10;99.90;;;;;;5011118;28;20028;-89
2023/10/03 02:59:24;;;;;;;0.98;0.98;;;21.10;99.90;;;;;;5014386;28;20022;-89
2023/10/03 03:01:52;;;;;;;0.95;0.95;;;21.10;99.90;;;;;;5012261;28;20033;-89
2023/10/03 03:04:21;;;;;;;0.75;0.75;;;21.20;99.90;;;;;;5007692;28;20041;-89
2023/10/03 03:06:46;;;;;;;1.42;1.42;;;21.10;99.90;;;;;;5015238;28;20028;-89
2023/10/03 03:09:17;;;;;;;2.13;1.08;;;21.10;99.90;;;;;;5009017;28;20017;-89
2023/10/03 03:11:49;;;;;;;3.45;1.50;;;21.20;99.90;;;;;;5017042;28;20033;-89
2023/10/03 03:14:14;;;;;;;1.23;1.13;;;21.20;99.90;;;;;;5012030;28;20028;-89
2023/10/03 03:16:47;;;;;;;1.90;0.85;;;21.10;99.90;;;;;;5010626;28;20022;-89
2023/10/03 03:19:14;;;;;;;4.95;0.90;;;21.10;99.90;;;;;;4998769;28;20025;-89
2023/10/03 03:21:44;;;;;;;2.85;1.05;;;21.00;99.90;;;;;;5008451;28;20080;-89
2023/10/03 03:24:10;;;;;;;1.55;0.77;;;21.00;99.90;;;;;;5013308;28;20764;-88
2023/10/03 03:26:36;;;;;;;1.30;1.20;;;21.10;99.90;;;;;;5027174;28;20799;-87
2023/10/03 03:29:06;;;;;;;2.17;1.40;;;21.20;99.90;;;;;;5031309;28;20025;-88
2023/10/03 03:31:34;;;;;;;1.95;1.05;;;21.10;99.90;;;;;;5008429;28;20119;-89
2023/10/03 03:34:00;;;;;;;2.90;2.03;;;21.10;99.90;;;;;;5011014;28;20036;-89
2023/10/03 03:36:30;;;;;;;1.02;1.02;;;21.10;99.90;;;;;;5007968;28;20519;-89
2023/10/03 03:38:58;;;;;;;0.85;0.85;;;21.20;99.90;;;;;;5008070;28;20116;-88
2023/10/03 03:41:24;;;;;;;1.70;1.02;;;21.20;99.90;;;;;;5011327;28;20035;-89
2023/10/03 03:43:50;;;;;;;3.20;0.95;;;21.20;99.90;;;;;;5032470;28;20029;-89
2023/10/03 03:46:18;;;;;;;1.25;1.17;;;21.10;99.90;;;;;;5015307;28;20033;-88
2023/10/03 03:48:45;;;;;;;0.75;0.75;;;21.20;99.90;;;;;;5005949;28;20576;-88
2023/10/03 03:51:19;;;;;;;2.03;1.83;;;21.20;99.90;;;;;;5006892;28;20026;-89
2023/10/03 06:18:13;;;;;;;0.47;0.47;;;21.60;99.90;;;;;;5577241;22;20687;-96
2023/10/03 06:25:51;;;;;;;6.25;1.15;;;21.60;99.90;;;;;;5285487;22;20319;-87
2023/10/03 06:28:17;;;;;;;0.63;0.63;;;21.70;99.90;;;;;;5067142;28;20012;-87
2023/10/03 06:30:42;;;;;;;2.92;0.75;;;21.60;99.90;;;;;;5048177;28;20012;-86
2023/10/03 06:33:08;;;;;;;1.27;1.27;;;21.60;99.90;;;;;;5046467;28;20365;-87
2023/10/03 06:35:34;;;;;;;1.75;1.25;;;21.50;99.90;;;;;;5065594;28;20020;-90
2023/10/03 06:37:59;;;;;;;1.23;1.13;;;21.60;99.90;;;;;;5046704;28;20082;-88
2023/10/03 06:40:25;;;;;;;3.03;0.77;;;21.50;99.90;;;;;;5047215;28;20013;-90
2023/10/03 06:42:50;;;;;;;0.60;0.60;;;21.50;99.90;;;;;;5065853;28;20098;-88
2023/10/03 06:45:16;;;;;;;4.57;0.90;;;21.50;99.90;;;;;;5048477;28;20492;-88
2023/10/03 06:47:42;;;;;;;0.52;0.52;;;21.50;99.90;;;;;;5045452;28;20107;-88
2023/10/03 06:50:10;;;;;;;2.00;0.75;;;21.50;99.90;;;;;;5047965;28;20024;-88
2023/10/03 06:52:38;;;;;;;2.33;1.77;;;21.40;99.90;;;;;;5038535;28;20081;-88
2023/10/03 06:55:04;;;;;;;0.63;0.63;;;21.40;99.90;;;;;;5047850;28;20040;-87
2023/10/03 06:57:31;;;;;;;0.70;0.70;;;21.30;99.90;;;;;;5047008;28;20063;-88
2023/10/03 06:59:57;;;;;;;1.23;1.23;;;21.40;99.90;;;;;;5042324;28;20017;-88
2023/10/03 07:02:23;;;;;;;0.50;0.50;;;21.40;99.90;;;;;;5056826;28;20094;-87
2023/10/03 07:04:51;;;;;;;0.73;0.40;;;21.30;99.90;;;;;;5044268;28;20119;-87
2023/10/03 07:07:20;;;;;;;0.40;0.40;;;21.20;99.90;;;;;;5042788;28;20089;-92
2023/10/03 07:09:46;;;;;;;0.45;0.40;;;21.10;99.90;;;;;;5050063;28;20366;-88
2023/10/03 07:14:48;;;;;;;0.90;0.70;;;21.10;99.90;;;;;;5561295;22;20053;-88
2023/10/03 07:17:14;;;;;;;0.40;0.40;;;21.20;99.90;;;;;;5022950;28;20029;-89
2023/10/03 07:19:40;;;;;;;1.38;0.43;;;21.10;99.90;;;;;;5017624;28;20080;-88
2023/10/03 07:22:06;;;;;;;0.40;0.40;;;21.20;99.90;;;;;;5022764;28;20447;-89
2023/10/03 07:24:34;;;;;;;0.30;0.30;;;21.10;99.90;;;;;;5016261;28;20051;-89
2023/10/03 07:27:03;;;;;;;0.55;0.55;;;21.10;99.90;;;;;;5019396;28;20096;-88
2023/10/03 07:37:20;;;;;;;0.70;0.70;;;21.00;99.90;;;;;;5313797;22;20049;-89
2023/10/03 07:47:26;;;;;;;4.00;1.38;;;20.90;99.90;;;;;;5002487;28;20038;-87
2023/10/03 07:49:52;;;;;;;0.38;0.38;;;20.80;99.90;;;;;;4983220;28;20026;-88
2023/10/03 07:54:56;;;;;;;0.38;0.38;;;20.80;99.90;;;;;;5731092;22;20053;-89
2023/10/03 08:02:33;;;;;;;0.63;0.32;;;20.80;99.90;;;;;;5408339;22;20513;-92
2023/10/03 08:05:02;;;;;;;0.20;0.20;;;20.90;99.90;;;;;;4995215;28;20072;-89
2023/10/03 08:07:28;;;;;;;1.40;1.30;;;20.80;99.90;;;;;;4997561;28;20477;-89
2023/10/03 08:09:54;;;;;;;0.85;0.85;;;20.90;99.90;;;;;;4999512;28;20025;-89
2023/10/03 08:12:24;;;;;;;0.50;0.50;;;20.90;99.90;;;;;;4999202;28;20480;-89
2023/10/03 08:14:53;;;;;;;0.28;0.28;;;20.80;99.90;;;;;;4992630;28;20022;-90
2023/10/03 08:17:26;;;;;;;0.45;0.45;;;20.80;99.90;;;;;;4995755;28;20104;-89
2023/10/03 08:19:52;;;;;;;0.65;0.60;;;20.80;99.90;;;;;;4999392;28;20033;-89
2023/10/03 08:22:20;;;;;;;0.55;0.55;;;20.60;99.90;;;;;;5001756;28;20025;-89
2023/10/03 08:29:50;;;;;;;1.00;1.00;;;20.70;99.90;;;;;;5009910;28;20050;-89
2023/10/03 08:32:17;;;;;;;0.20;0.20;;;20.80;99.90;;;;;;4990361;28;20026;-89
2023/10/03 08:34:44;;;;;;;0.20;0.20;;;20.70;99.90;;;;;;5005150;28;20143;-88
2023/10/03 08:37:18;;;;;;;0.30;0.30;;;20.80;99.90;;;;;;4970468;28;20061;-89
2023/10/03 08:39:46;;;;;;;0.32;0.32;;;20.70;99.90;;;;;;4990987;28;20072;-89
2023/10/03 08:42:34;;;;;;;0.50;0.50;;;20.70;99.90;;;;;;4985838;28;20033;-91
2023/10/03 08:47:39;;;;;;;0.57;0.57;;;20.60;99.90;;;;;;5613725;22;20069;-90
2023/10/03 08:50:14;;;;;;;0.20;0.20;;;20.40;99.90;;;;;;5002117;28;20112;-89
2023/10/03 08:52:47;;;;;;;0.50;0.50;;;20.30;99.90;;;;;;5003195;28;20391;-90
2023/10/03 09:13:16;;;;;;;1.75;0.50;;;20.30;99.90;;;;;;5021426;28;20042;-93
2023/10/03 09:15:45;;;;;;;1.50;1.40;;;20.30;99.90;;;;;;5011724;28;20030;-96
2023/10/03 09:20:47;;;;;;;1.33;0.95;;;20.20;99.90;;;;;;5033597;22;20499;-91
2023/10/03 09:23:17;;;;;;;0.60;0.60;;;20.30;99.90;;;;;;5365845;23;20044;-95
2023/10/03 09:26:19;;;;;;;0.73;0.73;;;20.30;99.90;;;;;;5031034;28;20045;-96
2023/10/03 09:31:31;;;;;;;2.95;0.63;;;20.20;99.90;;;;;;5381451;22;20044;-96
2023/10/03 09:36:35;;;;;;;0.30;0.30;;;20.20;99.90;;;;;;5617716;22;20045;-96
2023/10/03 09:39:02;;;;;;;0.30;0.30;;;20.50;99.90;;;;;;5016433;28;20117;-94
2023/10/03 09:41:29;;;;;;;0.20;0.20;;;20.40;99.90;;;;;;5008522;28;20030;-89
2023/10/03 09:43:55;;;;;;;0.38;0.28;;;20.30;99.90;;;;;;5002845;28;20065;-88
2023/10/03 09:48:56;;;;;;;0.47;0.47;;;20.40;99.90;;;;;;5118022;22;20052;-91
2023/10/03 09:51:36;;;;;;;0.20;0.20;;;20.40;99.90;;;;;;5019181;28;20026;-89
2023/10/03 09:54:15;;;;;;;0.40;0.40;;;20.40;99.90;;;;;;5008266;28;20032;-88
2023/10/03 10:01:59;;;;;;;0.28;0.28;;;20.50;99.90;;;;;;5548208;22;20076;-88
2023/10/03 10:04:26;;;;;;;0.60;0.60;;;20.50;99.90;;;;;;5004802;28;20048;-88
2023/10/03 10:07:27;;;;;;;0.52;0.52;;;20.40;99.90;;;;;;5008586;28;20055;-89
2023/10/03 10:10:28;;;;;;;0.20;0.20;;;20.40;99.90;;;;;;5028057;28;20037;-96
2023/10/03 10:13:20;;;;;;;1.08;1.00;;;20.30;99.90;;;;;;4999449;28;20119;-88
2023/10/03 10:18:45;;;;;;;0.22;0.22;;;20.10;99.90;;;;;;5821416;22;20032;-96
2023/10/03 10:21:25;;;;;;;2.55;1.25;;;20.00;99.90;;;;;;4992351;28;20037;-93
2023/10/03 10:24:15;;;;;;;0.80;0.80;;;20.00;99.90;;;;;;4992571;28;20026;-80
2023/10/03 10:26:48;;;;;;;0.20;0.20;;;20.10;99.90;;;;;;5004301;28;20121;-85
2023/10/03 10:29:19;;;;;;;;;;;20.00;99.90;;;;;;4993231;28;20038;-85
2023/10/03 10:31:49;;;;;;;0.30;0.30;;;19.80;99.90;;;;;;5011485;28;19906;-85
2023/10/03 10:34:21;;;;;;;0.30;0.30;;;19.70;99.90;;;;;;4990727;28;20034;-86
2023/10/03 10:36:57;;;;;;;0.30;0.30;;;19.60;99.90;;;;;;4992986;28;20169;-85
2023/10/03 10:39:42;;;;;;;0.20;0.20;;;19.70;99.90;;;;;;5005791;28;20034;-86
2023/10/03 10:42:14;;;;;;;0.50;0.50;;;19.70;99.90;;;;;;5004570;28;20057;-85
2023/10/03 10:45:03;;;;;;;0.30;0.30;;;19.70;99.90;;;;;;5006005;28;20528;-85
2023/10/03 10:47:33;;;;;;;0.30;0.30;;;19.70;99.90;;;;;;4969976;28;20410;-89
2023/10/03 10:50:00;;;;;;;1.83;0.70;;;19.70;99.90;;;;;;5004631;28;20025;-80
2023/10/03 10:52:29;;;;;;;0.57;0.57;;;19.60;99.90;;;;;;5001301;28;20022;-82
2023/10/03 10:54:58;;;;;;;0.30;0.30;;;19.70;99.90;;;;;;5002015;28;20048;-82
2023/10/03 10:57:28;;;;;;;0.40;0.40;;;19.70;99.90;;;;;;4985099;28;20045;-82
2023/10/03 10:59:55;;;;;;;0.30;0.30;;;19.80;99.90;;;;;;5003200;28;20084;-81
2023/10/03 11:02:28;;;;;;;0.20;0.20;;;19.80;99.90;;;;;;4999575;28;20092;-81
2023/10/03 11:04:57;;;;;;;0.32;0.32;;;19.80;99.90;;;;;;4982668;28;20042;-82
2023/10/03 11:07:31;;;;;;;0.20;0.20;;;19.90;99.90;;;;;;5003303;28;20061;-82
2023/10/03 11:10:06;;;;;;;0.30;0.30;;;20.10;99.90;;;;;;5004003;28;20028;-81
2023/10/03 11:12:31;;;;;;;0.25;0.25;;;20.00;99.90;;;;;;5001909;28;20029;-81
2023/10/03 11:15:00;;;;;;;0.20;0.20;;;19.80;99.90;;;;;;5001782;28;20018;-85
2023/10/03 11:17:25;;;;;;;0.20;0.20;;;19.80;99.90;;;;;;5006284;28;20029;-85
2023/10/03 11:19:54;;;;;;;0.40;0.40;;;19.60;99.90;;;;;;5002956;28;20038;-85
2023/10/03 11:22:21;;;;;;;0.30;0.30;;;19.40;99.90;;;;;;4999195;28;20610;-85
2023/10/03 11:24:49;;;;;;;0.30;0.30;;;19.30;99.90;;;;;;5002179;28;20642;-85
2023/10/03 11:27:28;;;;;;;0.30;0.30;;;19.20;99.90;;;;;;4976017;28;20163;-85
2023/10/03 11:29:54;;;;;;;0.28;0.28;;;19.30;99.90;;;;;;4987450;28;20052;-85
2023/10/03 11:32:32;;;;;;;0.30;0.30;;;19.30;99.90;;;;;;4988907;28;20362;-85
2023/10/03 11:34:59;;;;;;;0.22;0.22;;;19.40;99.90;;;;;;4969274;28;20038;-82
2023/10/03 11:37:44;;;;;;;0.30;0.30;;;19.40;99.90;;;;;;4966852;28;20061;-81
2023/10/03 11:40:13;;;;;;;0.30;0.30;;;19.60;99.90;;;;;;4969852;28;20046;-81
2023/10/03 11:42:52;;;;;;;0.32;0.32;;;19.80;99.90;;;;;;4963806;28;20034;-81
2023/10/03 11:45:36;;;;;;;0.32;0.32;;;19.80;99.90;;;;;;4974985;28;20068;-82
2023/10/03 11:48:10;;;;;;;0.40;0.40;;;19.90;99.90;;;;;;4988036;28;20034;-82
2023/10/03 11:50:38;;;;;;;0.30;0.30;;;19.90;99.90;;;;;;4966972;28;20561;-81
2023/10/03 11:53:05;;;;;;;0.63;0.63;;;20.10;99.90;;;;;;4968964;28;20034;-81
2023/10/03 11:55:32;;;;;;;0.50;0.50;;;20.20;99.90;;;;;;4974525;28;20447;-81
2023/10/03 11:58:18;;;;;;;0.20;0.20;;;20.30;99.90;;;;;;4980723;28;20019;-94
2023/10/03 12:00:44;;;;;;;0.30;0.30;;;20.20;99.90;;;;;;4990970;28;20049;-95
2023/10/03 12:03:11;;;;;;;0.50;0.50;;;20.20;99.90;;;;;;4984128;28;20300;-94
2023/10/03 12:06:00;;;;;;;0.30;0.30;;;20.10;99.90;;;;;;4978092;28;20173;-95
2023/10/03 12:09:32;;;;;;;2.45;1.30;;;20.10;99.90;;;;;;4968691;28;20073;-90
2023/10/03 12:11:57;;;;;;;0.60;0.60;;;20.00;99.90;;;;;;4882762;29;20032;-91
2023/10/03 12:14:23;;;;;;;0.30;0.30;;;19.80;99.90;;;;;;4916068;28;20034;-93
2023/10/03 12:16:51;;;;;;;0.30;0.30;;;19.80;99.90;;;;;;4977739;28;20022;-87
2023/10/03 12:19:19;;;;;;;0.22;0.22;;;19.90;99.90;;;;;;4970774;28;20038;-94
2023/10/03 12:21:46;;;;;;;0.30;0.30;;;19.90;99.90;;;;;;4992179;28;20038;-91
2023/10/03 12:24:23;;;;;;;0.28;0.28;;;20.10;99.90;;;;;;4993063;28;20047;-94
2023/10/03 12:26:49;;;;;;;0.22;0.22;;;20.30;99.90;;;;;;4976725;28;20026;-90
2023/10/03 12:29:19;;;;;;;0.30;0.30;;;20.20;99.90;;;;;;4993624;28;20359;-93
2023/10/03 12:31:48;;;;;;;0.30;0.30;;;20.10;99.90;;;;;;5001015;28;20026;-95
2023/10/03 12:34:13;;;;;;;0.30;0.30;;;20.00;99.90;;;;;;5064025;22;20055;-96
2023/10/03 12:36:39;;;;;;;0.52;0.52;;;19.70;99.90;;;;;;5078900;22;20065;-95
2023/10/03 12:39:24;;;;;;;0.20;0.20;;;19.70;99.90;;;;;;5004571;28;20049;-95
2023/10/03 12:41:50;;;;;;;0.30;0.30;;;19.60;99.90;;;;;;4995897;28;20033;-95
2023/10/03 12:44:17;;;;;;;0.30;0.30;;;19.20;99.90;;;;;;4989971;28;20087;-87
2023/10/03 12:46:42;;;;;;;0.43;0.43;;;18.90;99.90;;;;;;4978910;28;20084;-88
2023/10/03 12:49:08;;;;;;;0.28;0.28;;;18.70;99.90;;;;;;4983986;28;20037;-86
2023/10/03 12:51:34;;;;;;;0.30;0.30;;;18.60;99.90;;;;;;4990738;28;20109;-92
2023/10/03 12:54:00;;;;;;;0.30;0.30;;;18.60;99.90;;;;;;4993023;28;20150;-96
2023/10/03 12:56:27;;;;;;;0.20;0.20;;;18.60;99.90;;;;;;4994841;28;20026;-91
2023/10/03 12:58:54;;;;;;;0.38;0.38;;;18.50;99.90;;;;;;4994083;28;20040;-95
2023/10/03 13:01:20;;;;;;;0.20;0.20;;;18.60;99.90;;;;;;5005249;28;20041;-95
2023/10/03 13:06:28;;;;;;;0.20;0.20;;;18.40;99.90;;;;;;5113928;22;21156;-96
2023/10/03 13:08:54;;;;;;;0.40;0.40;;;18.30;99.90;;;;;;5259009;23;20049;-89
2023/10/03 13:11:28;;;;;;;0.30;0.30;;;18.20;99.90;;;;;;5028965;28;20014;-94
2023/10/03 13:14:09;;;;;;;;;;;;;;;;;;;;;
2023/10/03 13:17:20;;;;;;;;;;;;;;;;;;;;;
2023/10/03 13:22:47;;;;;;;0.20;0.20;;;17.90;99.90;;;;;;5033926;28;20025;-92
2023/10/03 13:27:45;;;;;;;0.20;0.20;;;17.70;99.90;;;;;;4994492;28;20070;-84
2023/10/03 13:30:17;;;;;;;0.20;0.20;;;17.60;99.90;;;;;;4995276;28;20072;-85
2023/10/03 13:32:43;;;;;;;0.20;0.20;;;17.70;99.90;;;;;;4991843;28;20554;-85
2023/10/03 13:35:13;;;;;;;0.28;0.28;;;17.60;99.90;;;;;;5000106;28;20057;-85
2023/10/03 13:37:39;;;;;;;0.20;0.20;;;17.60;99.90;;;;;;4998398;28;20034;-96
2023/10/03 13:40:06;;;;;;;0.20;0.20;;;17.60;99.90;;;;;;5071068;22;20034;-94
2023/10/03 13:42:33;;;;;;;0.20;0.20;;;17.60;99.90;;;;;;5037611;28;20034;-93
2023/10/03 13:44:59;;;;;;;0.43;0.43;;;17.50;99.90;;;;;;5037204;28;20046;-93
2023/10/03 13:47:36;;;;;;;0.20;0.20;;;17.40;99.90;;;;;;5037300;28;20026;-96
2023/10/03 13:50:03;;;;;;;1.73;0.47;;;17.30;99.90;;;;;;5023406;28;20084;-96
2023/10/03 13:52:29;;;;;;;0.20;0.20;;;17.40;99.90;;;;;;5024843;28;20049;-94
2023/10/03 13:55:15;;;;;;;0.65;0.65;;;17.30;99.90;;;;;;5058111;28;20022;-92
2023/10/03 13:57:56;;;;;;;0.10;0.10;;;17.30;99.90;;;;;;5063392;28;20471;-96
2023/10/03 14:00:35;;;;;;;0.20;0.20;;;17.20;99.90;;;;;;5056003;28;20025;-96
2023/10/03 14:03:05;;;;;;;0.20;0.20;;;17.20;99.90;;;;;;5057971;28;20535;-89
2023/10/03 14:05:32;;;;;;;0.20;0.20;;;17.20;99.90;;;;;;5053077;28;20044;-82
2023/10/03 14:07:58;;;;;;;0.20;0.20;;;17.30;99.90;;;;;;5026132;28;20390;-83
2023/10/03 14:10:24;;;;;;;0.20;0.20;;;17.40;99.90;;;;;;5026659;28;20033;-91
2023/10/03 14:12:52;;;;;;;6.32;1.20;;;17.40;99.90;;;;;;5031144;28;20025;-91
2023/10/03 14:15:20;;;;;;;0.30;0.30;;;17.60;99.90;;;;;;5061443;28;20044;-90
2023/10/03 14:17:46;;;;;;;0.20;0.20;;;17.70;99.90;;;;;;5023550;28;20148;-84
2023/10/03 14:20:13;;;;;;;0.10;0.10;;;17.80;99.90;;;;;;5021667;28;20496;-84
2023/10/03 14:22:40;;;;;;;0.30;0.30;;;17.70;99.90;;;;;;5021348;28;20492;-86
2023/10/03 14:25:11;;;;;;;0.20;0.20;;;17.80;99.90;;;;;;5017262;28;20061;-86
2023/10/03 14:27:41;;;;;;;0.30;0.30;;;17.80;99.90;;;;;;5018594;28;20025;-83
2023/10/03 14:30:08;;;;;;;0.30;0.30;;;17.90;99.90;;;;;;5023246;28;20021;-84
2023/10/03 14:32:40;;;;;;;0.30;0.30;;;18.00;99.90;;;;;;5048250;28;20160;-84
2023/10/03 14:35:07;;;;;;;0.20;0.20;;;17.90;99.90;;;;;;5016665;28;20529;-85
2023/10/03 14:37:33;;;;;;;0.30;0.30;;;17.70;99.90;;;;;;5018224;28;20682;-83
2023/10/03 14:39:59;;;;;;;0.30;0.30;;;17.60;99.90;;;;;;5018908;28;20516;-84
2023/10/03 14:42:25;;;;;;;0.85;0.50;;;17.70;99.90;;;;;;5022195;28;20207;-85
2023/10/03 14:44:50;;;;;;;1.02;0.77;;;17.70;99.90;;;;;;5016120;28;20501;-85
2023/10/03 14:47:16;;;;;;;0.20;0.20;;;17.70;99.90;;;;;;5052399;28;20021;-85
2023/10/03 14:49:43;;;;;;;0.30;0.30;;;17.50;99.90;;;;;;5019485;28;20283;-84
2023/10/03 14:52:09;;;;;;;0.10;0.10;;;17.50;99.90;;;;;;5022981;28;20112;-84
2023/10/03 14:54:34;;;;;;;0.20;0.20;;;17.50;99.90;;;;;;5053506;28;20172;-83
2023/10/03 14:57:01;;;;;;;0.20;0.20;;;17.50;99.90;;;;;;5022160;28;20021;-85
2023/10/03 14:59:27;;;;;;;2.88;0.65;;;17.30;99.90;;;;;;5021805;28;20025;-84
2023/10/03 15:01:53;;;;;;;0.10;0.10;;;17.20;99.90;;;;;;5021224;28;20126;-87
2023/10/03 15:04:21;;;;;;;2.85;1.65;;;17.00;99.90;;;;;;5024063;28;20038;-81
2023/10/03 15:06:47;;;;;;;0.20;0.20;;;17.10;99.90;;;;;;5147080;22;20046;-84
2023/10/03 15:09:12;;;;;;;0.20;0.20;;;17.10;99.90;;;;;;5021611;28;20089;-85
2023/10/03 15:11:42;;;;;;;0.30;0.30;;;17.00;99.90;;;;;;5018743;28;20086;-83
2023/10/03 15:14:07;;;;;;;0.30;0.30;;;17.00;99.90;;;;;;5018426;28;20550;-83
2023/10/03 15:16:33;;;;;;;0.20;0.20;;;16.90;99.90;;;;;;5017207;28;20021;-83
2023/10/03 15:19:05;;;;;;;0.20;0.20;;;17.00;99.90;;;;;;5004247;28;20033;-83
2023/10/03 15:21:32;;;;;;;0.10;0.10;;;17.00;99.90;;;;;;4996848;28;20033;-84
2023/10/03 15:23:58;;;;;;;0.20;0.20;;;17.10;99.90;;;;;;5022240;28;20536;-82
2023/10/03 15:26:24;;;;;;;0.20;0.20;;;17.40;99.90;;;;;;5021457;28;20017;-84
2023/10/03 15:28:51;;;;;;;0.20;0.20;;;17.80;99.90;;;;;;5018345;28;20037;-83
2023/10/03 15:31:24;;;;;;;0.30;0.30;;;18.10;99.90;;;;;;4998411;28;20485;-83
2023/10/03 15:33:51;;;;;;;0.30;0.30;;;18.30;99.90;;;;;;5020815;28;20034;-83
2023/10/03 15:36:16;;;;;;;0.20;0.20;;;18.40;99.90;;;;;;5013708;28;20026;-84
2023/10/03 15:38:44;;;;;;;0.32;0.32;;;18.40;99.90;;;;;;5005502;28;20028;-83
2023/10/03 15:41:16;;;;;;;0.30;0.30;;;18.50;99.90;;;;;;5022484;28;20030;-84
2023/10/03 15:43:45;;;;;;;0.28;0.28;;;18.60;99.90;;;;;;5024619;28;20022;-84
2023/10/03 15:46:11;;;;;;;0.43;0.43;;;18.50;99.90;;;;;;5004992;28;20041;-84
2023/10/03 15:48:37;;;;;;;0.35;0.35;;;18.70;99.90;;;;;;5011713;28;20033;-85
2023/10/03 15:51:05;;;;;;;0.20;0.20;;;18.90;99.90;;;;;;5006648;28;20116;-84
2023/10/03 15:53:36;;;;;;;0.30;0.30;;;19.00;99.90;;;;;;5022654;28;20147;-84
2023/10/03 15:56:04;;;;;;;0.20;0.20;;;19.00;99.90;;;;;;5006184;28;20520;-84
2023/10/03 15:58:32;;;;;;;3.72;0.60;;;19.10;99.90;;;;;;5022289;28;20036;-85
2023/10/03 16:00:59;;;;;;;0.40;0.40;;;18.90;99.90;;;;;;5027182;28;20025;-85
2023/10/03 16:03:25;;;;;;;0.30;0.30;;;18.80;99.90;;;;;;5020222;28;20389;-84
2023/10/03 16:05:51;;;;;;;0.20;0.20;;;18.70;99.90;;;;;;5020958;28;20037;-84
2023/10/03 16:08:26;;;;;;;0.35;0.35;;;18.50;99.90;;;;;;5022593;28;20033;-82
2023/10/03 16:10:54;;;;;;;0.20;0.20;;;18.40;99.90;;;;;;5018900;28;20562;-84
2023/10/03 16:13:20;;;;;;;0.25;0.25;;;18.40;99.90;;;;;;5006790;28;20405;-83
2023/10/03 16:15:47;;;;;;;0.20;0.20;;;18.20;99.90;;;;;;5006452;28;20037;-84
2023/10/03 16:18:13;;;;;;;0.15;0.15;;;18.20;99.90;;;;;;5004788;28;20025;-84
2023/10/03 16:20:42;;;;;;;0.20;0.20;;;18.10;99.90;;;;;;5004195;28;21138;-83
2023/10/03 16:23:10;;;;;;;0.32;0.32;;;18.00;99.90;;;;;;5020927;28;20049;-84
2023/10/03 16:25:39;;;;;;;0.20;0.20;;;17.90;99.90;;;;;;5008091;28;20049;-84
2023/10/03 16:28:05;;;;;;;0.47;0.47;;;17.70;99.90;;;;;;5020844;28;20026;-84
2023/10/03 16:30:33;;;;;;;0.20;0.20;;;17.70;99.90;;;;;;5021540;28;20029;-85
2023/10/03 16:33:00;;;;;;;0.20;0.20;;;17.60;99.90;;;;;;5003175;28;20103;-84
2023/10/03 16:35:25;;;;;;;0.20;0.20;;;17.50;99.90;;;;;;5016670;28;20026;-83
2023/10/03 16:37:51;;;;;;;0.57;0.57;;;17.50;99.90;;;;;;5001966;28;20488;-83
2023/10/03 16:40:22;;;;;;;0.20;0.20;;;17.60;99.90;;;;;;5005664;28;20021;-84
2023/10/03 16:42:50;;;;;;;0.20;0.20;;;17.70;99.90;;;;;;5006280;28;20037;-83
2023/10/03 16:45:21;;;;;;;0.25;0.20;;;17.90;99.90;;;;;;5021675;28;20076;-83
2023/10/03 16:47:51;;;;;;;0.30;0.30;;;17.90;99.90;;;;;;5019813;28;20010;-83
2023/10/03 16:50:19;;;;;;;0.20;0.20;;;17.80;99.90;;;;;;4997522;28;20037;-84
2023/10/03 16:52:46;;;;;;;0.20;0.20;;;17.80;99.90;;;;;;5009099;28;20026;-83
2023/10/03 16:55:14;;;;;;;0.30;0.30;;;17.60;99.90;;;;;;5021780;28;20192;-83
2023/10/03 16:57:41;;;;;;;0.20;0.20;;;17.50;99.90;;;;;;5004682;28;20790;-84
2023/10/03 17:00:12;;;;;;;0.20;0.20;;;17.40;99.90;;;;;;5018344;28;20610;-83
2023/10/03 17:02:45;;;;;;;0.65;0.65;;;17.40;99.90;;;;;;5009182;28;20126;-83
2023/10/03 17:05:13;;;;;;;0.22;0.22;;;17.20;99.90;;;;;;5000228;28;20106;-84
2023/10/03 17:07:40;;;;;;;0.40;0.40;;;16.90;99.90;;;;;;4992904;28;20489;-83
2023/10/03 17:10:07;;;;;;;0.22;0.22;;;16.80;99.90;;;;;;5001360;28;20394;-83
2023/10/03 17:12:38;;;;;;;0.30;0.30;;;16.60;99.90;;;;;;4999058;28;20381;-84
2023/10/03 17:15:10;;;;;;;0.20;0.20;;;16.50;99.90;;;;;;5000267;28;20041;-83
2023/10/03 17:17:42;;;;;;;0.40;0.40;;;16.40;99.90;;;;;;4995692;28;20021;-85
2023/10/03 17:20:14;;;;;;;0.40;0.40;;;16.40;99.90;;;;;;4993817;28;20041;-84
2023/10/03 17:22:40;;;;;;;0.20;0.20;;;16.40;99.90;;;;;;5019882;28;20311;-83
2023/10/03 17:25:09;;;;;;;0.13;0.13;;;16.30;99.90;;;;;;5017053;28;20557;-84
2023/10/03 17:27:36;;;;;;;0.20;0.20;;;16.40;99.90;;;;;;4997061;28;20053;-82
2023/10/03 17:30:07;;;;;;;0.43;0.43;;;16.40;99.90;;;;;;5017627;28;20036;-83
2023/10/03 17:32:37;;;;;;;0.35;0.35;;;16.20;99.90;;;;;;4994901;28;20615;-84
2023/10/03 17:35:09;;;;;;;0.20;0.20;;;16.10;99.90;;;;;;4998804;28;20033;-84
2023/10/03 17:37:40;;;;;;;0.20;0.20;;;16.10;99.90;;;;;;5017948;28;20056;-84
2023/10/03 17:40:13;;;;;;;0.25;0.25;;;16.10;99.90;;;;;;5017256;28;20136;-83
2023/10/03 17:42:44;;;;;;;0.20;0.20;;;16.10;99.90;;;;;;5017905;28;20025;-83
2023/10/03 17:45:12;;;;;;;0.20;0.20;;;16.00;99.90;;;;;;5017633;28;20124;-83
2023/10/03 17:47:41;;;;;;;0.30;0.30;;;16.00;99.90;;;;;;5017868;28;20026;-83
2023/10/03 17:50:16;;;;;;;0.30;0.30;;;16.10;99.90;;;;;;5020042;28;20547;-83
2023/10/03 17:52:42;;;;;;;0.80;0.80;;;16.00;99.90;;;;;;5014189;28;20183;-84
2023/10/03 17:55:09;;;;;;;0.30;0.30;;;15.80;99.90;;;;;;4998729;28;20057;-84
2023/10/03 17:57:39;;;;;;;0.20;0.20;;;15.90;99.90;;;;;;4996801;28;20057;-83
2023/10/03 18:00:10;;;;;;;0.20;0.20;;;15.80;99.90;;;;;;5017443;28;20040;-84
2023/10/03 18:02:41;;;;;;;0.20;0.20;;;15.80;99.90;;;;;;5015059;28;20041;-84
2023/10/03 18:05:09;;;;;;;0.40;0.40;;;15.90;99.90;;;;;;5016964;28;20568;-85
2023/10/03 18:07:39;;;;;;;0.32;0.32;;;15.80;99.90;;;;;;5014823;28;20033;-83
2023/10/03 18:10:12;;;;;;;0.30;0.30;;;15.90;99.90;;;;;;5014014;28;20039;-84
2023/10/03 18:12:40;;;;;;;0.20;0.20;;;15.80;99.90;;;;;;5000034;28;20130;-85
2023/10/03 18:15:12;;;;;;;0.35;0.35;;;15.80;99.90;;;;;;5000249;28;20022;-85
2023/10/03 18:17:38;;;;;;;0.20;0.20;;;15.80;99.90;;;;;;5015139;28;20223;-86
2023/10/03 18:20:09;;;;;;;0.20;0.20;;;15.80;99.90;;;;;;5018446;28;20037;-83
2023/10/03 18:22:35;;;;;;;0.10;0.10;;;15.70;99.90;;;;;;5017692;28;20053;-84
2023/10/03 18:25:01;;;;;;;0.20;0.20;;;15.70;99.90;;;;;;5012945;28;20122;-83
2023/10/03 18:27:26;;;;;;;0.10;0.10;;;15.70;99.90;;;;;;4993471;28;20026;-84
2023/10/03 18:29:54;;;;;;;0.22;0.22;;;15.60;99.90;;;;;;5014691;28;20064;-85
2023/10/03 18:32:20;;;;;;;0.20;0.20;;;15.60;99.90;;;;;;4998921;28;20029;-85
2023/10/03 18:34:46;;;;;;;0.20;0.20;;;15.60;99.90;;;;;;5015884;28;20075;-84
2023/10/03 18:37:14;;;;;;;0.25;0.25;;;15.50;99.90;;;;;;5017060;28;20170;-85
2023/10/03 18:39:42;;;;;;;2.00;0.40;;;15.50;99.90;;;;;;5000094;28;20032;-85
2023/10/03 18:42:07;;;;;;;0.20;0.20;;;15.40;99.90;;;;;;5018199;28;20079;-85
2023/10/03 18:44:34;;;;;;;0.95;0.95;;;15.40;99.90;;;;;;5018210;28;20811;-83
2023/10/03 18:47:00;;;;;;;0.20;0.20;;;15.40;99.90;;;;;;5003079;28;20120;-85
2023/10/03 18:49:27;;;;;;;0.10;0.10;;;15.30;99.90;;;;;;5001942;28;20520;-84
2023/10/03 18:51:55;;;;;;;0.20;0.20;;;15.30;99.90;;;;;;5023074;28;20087;-83
2023/10/03 18:54:21;;;;;;;0.73;0.73;;;15.30;99.90;;;;;;5017855;28;20091;-84
2023/10/03 18:56:46;;;;;;;0.30;0.30;;;15.40;99.90;;;;;;4993920;28;20574;-84